sensor_id;sensor_type;location;lat;lon;timestamp;P1;durP1;ratioP1;P2;durP2;ratioP2
56670;SDS011;42545;50.054;8.306;2022-08-03T00:00:53;1.00;;;0.90;;
56670;SDS011;42545;50.054;8.306;2022-08-03T00:03:20;0.82;;;0.82;;
56670;SDS011;42545;50.054;8.306;2022-08-03T00:05:47;0.60;;;0.60;;
56670;SDS011;42545;50.054;8.306;2022-08-03T00:08:16;1.02;;;0.90;;
56670;SDS011;42545;50.054;8.306;2022-08-03T00:10:43;0.90;;;0.90;;
56670;SDS011;42545;50.054;8.306;2022-08-03T00:13:09;1.15;;;1.05;;
56670;SDS011;42545;50.054;8.306;2022-08-03T00:15:37;1.20;;;1.08;;
56670;SDS011;42545;50.054;8.306;2022-08-03T00:18:05;0.93;;;0.90;;
56670;SDS011;42545;50.054;8.306;2022-08-03T00:20:32;1.10;;;1.00;;
56670;SDS011;42545;50.054;8.306;2022-08-03T00:22:59;1.20;;;1.10;;
56670;SDS011;42545;50.054;8.306;2022-08-03T00:25:27;1.77;;;1.40;;
56670;SDS011;42545;50.054;8.306;2022-08-03T00:27:54;1.38;;;1.27;;
56670;SDS011;42545;50.054;8.306;2022-08-03T00:30:21;1.30;;;1.20;;
56670;SDS011;42545;50.054;8.306;2022-08-03T00:32:47;1.40;;;1.17;;
56670;SDS011;42545;50.054;8.306;2022-08-03T00:35:16;1.30;;;1.20;;
56670;SDS011;42545;50.054;8.306;2022-08-03T00:37:42;1.40;;;1.20;;
56670;SDS011;42545;50.054;8.306;2022-08-03T00:40:10;1.30;;;1.20;;
56670;SDS011;42545;50.054;8.306;2022-08-03T00:42:52;1.20;;;1.10;;
56670;SDS011;42545;50.054;8.306;2022-08-03T00:45:21;1.02;;;1.00;;
56670;SDS011;42545;50.054;8.306;2022-08-03T00:50:19;1.15;;;1.00;;
56670;SDS011;42545;50.054;8.306;2022-08-03T00:52:47;1.02;;;0.90;;
56670;SDS011;42545;50.054;8.306;2022-08-03T00:55:14;1.00;;;0.90;;
56670;SDS011;42545;50.054;8.306;2022-08-03T00:57:42;0.88;;;0.88;;
56670;SDS011;42545;50.054;8.306;2022-08-03T01:00:12;0.80;;;0.80;;
56670;SDS011;42545;50.054;8.306;2022-08-03T01:02:40;0.75;;;0.75;;
56670;SDS011;42545;50.054;8.306;2022-08-03T01:05:07;0.80;;;0.80;;
56670;SDS011;42545;50.054;8.306;2022-08-03T01:07:37;0.80;;;0.80;;
56670;SDS011;42545;50.054;8.306;2022-08-03T01:10:13;1.15;;;0.95;;
56670;SDS011;42545;50.054;8.306;2022-08-03T01:12:47;0.90;;;0.90;;
56670;SDS011;42545;50.054;8.306;2022-08-03T01:15:26;1.10;;;1.00;;
56670;SDS011;42545;50.054;8.306;2022-08-03T01:18:00;1.30;;;1.20;;
56670;SDS011;42545;50.054;8.306;2022-08-03T01:20:32;0.90;;;0.90;;
56670;SDS011;42545;50.054;8.306;2022-08-03T01:23:05;1.90;;;1.00;;
56670;SDS011;42545;50.054;8.306;2022-08-03T01:25:53;1.20;;;1.10;;
56670;SDS011;42545;50.054;8.306;2022-08-03T01:28:32;1.20;;;1.10;;
56670;SDS011;42545;50.054;8.306;2022-08-03T01:31:23;0.90;;;0.88;;
56670;SDS011;42545;50.054;8.306;2022-08-03T01:33:54;1.20;;;1.10;;
56670;SDS011;42545;50.054;8.306;2022-08-03T01:36:26;1.30;;;1.20;;
56670;SDS011;42545;50.054;8.306;2022-08-03T01:38:59;1.05;;;1.00;;
56670;SDS011;42545;50.054;8.306;2022-08-03T01:41:28;1.15;;;1.05;;
56670;SDS011;42545;50.054;8.306;2022-08-03T01:43:57;1.27;;;1.17;;
56670;SDS011;42545;50.054;8.306;2022-08-03T01:46:28;1.20;;;1.10;;
56670;SDS011;42545;50.054;8.306;2022-08-03T01:51:24;0.90;;;0.90;;
56670;SDS011;42545;50.054;8.306;2022-08-03T01:53:51;1.10;;;1.00;;
56670;SDS011;42545;50.054;8.306;2022-08-03T01:56:20;1.10;;;1.00;;
56670;SDS011;42545;50.054;8.306;2022-08-03T01:58:50;0.90;;;0.90;;
56670;SDS011;42545;50.054;8.306;2022-08-03T02:01:19;0.90;;;0.88;;
56670;SDS011;42545;50.054;8.306;2022-08-03T02:03:49;0.80;;;0.80;;
56670;SDS011;42545;50.054;8.306;2022-08-03T02:06:18;1.02;;;0.80;;
56670;SDS011;42545;50.054;8.306;2022-08-03T02:08:46;0.98;;;0.98;;
56670;SDS011;42545;50.054;8.306;2022-08-03T02:11:14;0.73;;;0.73;;
56670;SDS011;42545;50.054;8.306;2022-08-03T02:13:41;0.82;;;0.82;;
56670;SDS011;42545;50.054;8.306;2022-08-03T02:16:09;1.33;;;1.02;;
56670;SDS011;42545;50.054;8.306;2022-08-03T02:18:40;1.10;;;1.05;;
56670;SDS011;42545;50.054;8.306;2022-08-03T02:21:09;1.13;;;1.02;;
56670;SDS011;42545;50.054;8.306;2022-08-03T02:23:37;1.40;;;1.30;;
56670;SDS011;42545;50.054;8.306;2022-08-03T02:26:06;1.13;;;1.02;;
56670;SDS011;42545;50.054;8.306;2022-08-03T02:28:37;1.17;;;1.08;;
56670;SDS011;42545;50.054;8.306;2022-08-03T02:31:08;1.30;;;1.20;;
56670;SDS011;42545;50.054;8.306;2022-08-03T02:33:40;1.15;;;1.05;;
56670;SDS011;42545;50.054;8.306;2022-08-03T02:36:10;1.17;;;1.10;;
56670;SDS011;42545;50.054;8.306;2022-08-03T02:38:41;1.02;;;1.00;;
56670;SDS011;42545;50.054;8.306;2022-08-03T02:41:12;0.80;;;0.80;;
56670;SDS011;42545;50.054;8.306;2022-08-03T02:43:42;1.42;;;1.33;;
56670;SDS011;42545;50.054;8.306;2022-08-03T02:46:13;1.30;;;1.20;;
56670;SDS011;42545;50.054;8.306;2022-08-03T02:48:45;1.65;;;1.20;;
56670;SDS011;42545;50.054;8.306;2022-08-03T02:51:15;1.15;;;1.05;;
56670;SDS011;42545;50.054;8.306;2022-08-03T02:56:10;1.02;;;1.02;;
56670;SDS011;42545;50.054;8.306;2022-08-03T02:58:39;1.50;;;1.40;;
56670;SDS011;42545;50.054;8.306;2022-08-03T03:01:09;1.92;;;1.20;;
56670;SDS011;42545;50.054;8.306;2022-08-03T03:03:38;1.10;;;0.90;;
56670;SDS011;42545;50.054;8.306;2022-08-03T03:06:05;1.40;;;1.30;;
56670;SDS011;42545;50.054;8.306;2022-08-03T03:08:35;1.20;;;1.10;;
56670;SDS011;42545;50.054;8.306;2022-08-03T03:11:03;1.20;;;1.10;;
56670;SDS011;42545;50.054;8.306;2022-08-03T03:13:32;1.10;;;1.00;;
56670;SDS011;42545;50.054;8.306;2022-08-03T03:16:00;1.10;;;1.00;;
56670;SDS011;42545;50.054;8.306;2022-08-03T03:18:32;1.20;;;1.10;;
56670;SDS011;42545;50.054;8.306;2022-08-03T03:21:00;1.20;;;1.10;;
56670;SDS011;42545;50.054;8.306;2022-08-03T03:23:27;1.05;;;1.00;;
56670;SDS011;42545;50.054;8.306;2022-08-03T03:25:57;1.17;;;1.08;;
56670;SDS011;42545;50.054;8.306;2022-08-03T03:28:26;1.20;;;1.10;;
56670;SDS011;42545;50.054;8.306;2022-08-03T03:30:54;1.10;;;1.10;;
56670;SDS011;42545;50.054;8.306;2022-08-03T03:33:21;1.13;;;1.00;;
56670;SDS011;42545;50.054;8.306;2022-08-03T03:35:48;1.20;;;1.10;;
56670;SDS011;42545;50.054;8.306;2022-08-03T03:38:17;0.98;;;0.95;;
56670;SDS011;42545;50.054;8.306;2022-08-03T03:40:44;1.10;;;1.00;;
56670;SDS011;42545;50.054;8.306;2022-08-03T03:43:12;1.10;;;1.00;;
56670;SDS011;42545;50.054;8.306;2022-08-03T03:45:39;1.17;;;1.08;;
56670;SDS011;42545;50.054;8.306;2022-08-03T03:48:07;1.20;;;1.10;;
56670;SDS011;42545;50.054;8.306;2022-08-03T03:50:34;1.00;;;0.90;;
56670;SDS011;42545;50.054;8.306;2022-08-03T03:53:07;1.05;;;0.98;;
56670;SDS011;42545;50.054;8.306;2022-08-03T03:55:35;1.02;;;0.98;;
56670;SDS011;42545;50.054;8.306;2022-08-03T03:58:02;1.20;;;1.10;;
56670;SDS011;42545;50.054;8.306;2022-08-03T04:00:31;1.05;;;0.95;;
56670;SDS011;42545;50.054;8.306;2022-08-03T04:02:58;1.40;;;1.30;;
56670;SDS011;42545;50.054;8.306;2022-08-03T04:05:25;1.40;;;1.30;;
56670;SDS011;42545;50.054;8.306;2022-08-03T04:08:11;1.50;;;1.40;;
56670;SDS011;42545;50.054;8.306;2022-08-03T04:11:03;1.40;;;1.30;;
56670;SDS011;42545;50.054;8.306;2022-08-03T04:13:37;1.23;;;1.13;;
56670;SDS011;42545;50.054;8.306;2022-08-03T04:16:08;1.30;;;1.20;;
56670;SDS011;42545;50.054;8.306;2022-08-03T04:18:38;1.27;;;1.15;;
56670;SDS011;42545;50.054;8.306;2022-08-03T04:21:09;1.02;;;1.02;;
56670;SDS011;42545;50.054;8.306;2022-08-03T04:23:39;1.05;;;1.02;;
56670;SDS011;42545;50.054;8.306;2022-08-03T04:26:11;1.20;;;1.10;;
56670;SDS011;42545;50.054;8.306;2022-08-03T04:28:40;1.27;;;1.10;;
56670;SDS011;42545;50.054;8.306;2022-08-03T04:31:11;1.20;;;1.10;;
56670;SDS011;42545;50.054;8.306;2022-08-03T04:33:42;1.10;;;1.00;;
56670;SDS011;42545;50.054;8.306;2022-08-03T04:36:11;1.15;;;1.10;;
56670;SDS011;42545;50.054;8.306;2022-08-03T04:38:43;1.10;;;1.00;;
56670;SDS011;42545;50.054;8.306;2022-08-03T04:41:18;1.20;;;1.10;;
56670;SDS011;42545;50.054;8.306;2022-08-03T04:43:48;0.80;;;0.80;;
56670;SDS011;42545;50.054;8.306;2022-08-03T04:46:22;1.20;;;1.05;;
56670;SDS011;42545;50.054;8.306;2022-08-03T04:48:51;1.20;;;1.10;;
56670;SDS011;42545;50.054;8.306;2022-08-03T04:51:18;1.00;;;0.90;;
56670;SDS011;42545;50.054;8.306;2022-08-03T04:53:45;0.80;;;0.80;;
56670;SDS011;42545;50.054;8.306;2022-08-03T04:56:12;0.90;;;0.90;;
56670;SDS011;42545;50.054;8.306;2022-08-03T04:58:39;1.00;;;0.90;;
56670;SDS011;42545;50.054;8.306;2022-08-03T05:01:05;0.90;;;0.90;;
56670;SDS011;42545;50.054;8.306;2022-08-03T05:03:34;0.80;;;0.80;;
56670;SDS011;42545;50.054;8.306;2022-08-03T05:06:01;0.70;;;0.70;;
56670;SDS011;42545;50.054;8.306;2022-08-03T05:08:28;0.85;;;0.85;;
56670;SDS011;42545;50.054;8.306;2022-08-03T05:10:55;0.70;;;0.70;;
56670;SDS011;42545;50.054;8.306;2022-08-03T05:13:22;0.73;;;0.73;;
56670;SDS011;42545;50.054;8.306;2022-08-03T05:15:49;0.65;;;0.65;;
56670;SDS011;42545;50.054;8.306;2022-08-03T05:18:15;0.63;;;0.63;;
56670;SDS011;42545;50.054;8.306;2022-08-03T05:20:44;0.55;;;0.55;;
56670;SDS011;42545;50.054;8.306;2022-08-03T05:23:11;0.60;;;0.60;;
56670;SDS011;42545;50.054;8.306;2022-08-03T05:25:41;0.70;;;0.70;;
56670;SDS011;42545;50.054;8.306;2022-08-03T05:28:07;0.68;;;0.68;;
56670;SDS011;42545;50.054;8.306;2022-08-03T05:30:35;0.50;;;0.50;;
56670;SDS011;42545;50.054;8.306;2022-08-03T05:33:02;0.60;;;0.60;;
56670;SDS011;42545;50.054;8.306;2022-08-03T05:35:30;0.80;;;0.80;;
56670;SDS011;42545;50.054;8.306;2022-08-03T05:38:00;0.70;;;0.70;;
56670;SDS011;42545;50.054;8.306;2022-08-03T05:40:27;1.15;;;1.02;;
56670;SDS011;42545;50.054;8.306;2022-08-03T05:42:54;1.10;;;1.00;;
56670;SDS011;42545;50.054;8.306;2022-08-03T05:45:21;0.88;;;0.82;;
56670;SDS011;42545;50.054;8.306;2022-08-03T05:47:49;1.73;;;1.02;;
56670;SDS011;42545;50.054;8.306;2022-08-03T05:50:16;2.75;;;1.10;;
56670;SDS011;42545;50.054;8.306;2022-08-03T05:52:43;1.92;;;1.17;;
56670;SDS011;42545;50.054;8.306;2022-08-03T05:55:14;1.48;;;1.13;;
56670;SDS011;42545;50.054;8.306;2022-08-03T05:57:43;0.90;;;0.90;;
56670;SDS011;42545;50.054;8.306;2022-08-03T06:00:12;1.67;;;1.45;;
56670;SDS011;42545;50.054;8.306;2022-08-03T06:02:39;3.13;;;1.60;;
56670;SDS011;42545;50.054;8.306;2022-08-03T06:05:06;1.58;;;1.23;;
56670;SDS011;42545;50.054;8.306;2022-08-03T06:07:34;2.22;;;1.35;;
56670;SDS011;42545;50.054;8.306;2022-08-03T06:10:01;2.90;;;1.98;;
56670;SDS011;42545;50.054;8.306;2022-08-03T06:12:30;5.15;;;1.90;;
56670;SDS011;42545;50.054;8.306;2022-08-03T06:15:00;3.38;;;1.55;;
56670;SDS011;42545;50.054;8.306;2022-08-03T06:17:27;2.17;;;1.65;;
56670;SDS011;42545;50.054;8.306;2022-08-03T06:19:54;1.70;;;1.40;;
56670;SDS011;42545;50.054;8.306;2022-08-03T06:22:21;1.83;;;1.38;;
56670;SDS011;42545;50.054;8.306;2022-08-03T06:24:48;1.95;;;1.30;;
56670;SDS011;42545;50.054;8.306;2022-08-03T06:27:15;3.88;;;1.98;;
56670;SDS011;42545;50.054;8.306;2022-08-03T06:29:44;1.40;;;1.30;;
56670;SDS011;42545;50.054;8.306;2022-08-03T06:32:11;1.90;;;1.50;;
56670;SDS011;42545;50.054;8.306;2022-08-03T06:34:38;1.63;;;1.30;;
56670;SDS011;42545;50.054;8.306;2022-08-03T06:37:05;2.28;;;1.13;;
56670;SDS011;42545;50.054;8.306;2022-08-03T06:39:32;4.72;;;1.70;;
56670;SDS011;42545;50.054;8.306;2022-08-03T06:41:59;2.28;;;1.20;;
56670;SDS011;42545;50.054;8.306;2022-08-03T06:44:26;3.33;;;2.03;;
56670;SDS011;42545;50.054;8.306;2022-08-03T06:46:54;3.38;;;1.70;;
56670;SDS011;42545;50.054;8.306;2022-08-03T06:49:22;2.28;;;1.77;;
56670;SDS011;42545;50.054;8.306;2022-08-03T06:51:49;2.50;;;1.80;;
56670;SDS011;42545;50.054;8.306;2022-08-03T06:54:17;2.63;;;1.70;;
56670;SDS011;42545;50.054;8.306;2022-08-03T06:56:46;2.22;;;1.90;;
56670;SDS011;42545;50.054;8.306;2022-08-03T06:59:13;5.00;;;2.50;;
56670;SDS011;42545;50.054;8.306;2022-08-03T07:01:40;5.95;;;2.10;;
56670;SDS011;42545;50.054;8.306;2022-08-03T07:04:08;3.90;;;1.77;;
56670;SDS011;42545;50.054;8.306;2022-08-03T07:06:36;4.28;;;2.25;;
56670;SDS011;42545;50.054;8.306;2022-08-03T07:09:05;3.40;;;1.83;;
56670;SDS011;42545;50.054;8.306;2022-08-03T07:11:32;2.17;;;1.70;;
56670;SDS011;42545;50.054;8.306;2022-08-03T07:14:00;4.45;;;1.90;;
56670;SDS011;42545;50.054;8.306;2022-08-03T07:16:26;4.10;;;1.90;;
56670;SDS011;42545;50.054;8.306;2022-08-03T07:18:54;1.95;;;1.60;;
56670;SDS011;42545;50.054;8.306;2022-08-03T07:21:22;4.82;;;2.55;;
56670;SDS011;42545;50.054;8.306;2022-08-03T07:23:49;2.47;;;1.83;;
56670;SDS011;42545;50.054;8.306;2022-08-03T07:26:16;1.88;;;1.67;;
56670;SDS011;42545;50.054;8.306;2022-08-03T07:28:43;2.90;;;1.90;;
56670;SDS011;42545;50.054;8.306;2022-08-03T07:31:10;4.13;;;2.15;;
56670;SDS011;42545;50.054;8.306;2022-08-03T07:33:37;3.03;;;1.88;;
56670;SDS011;42545;50.054;8.306;2022-08-03T07:36:05;2.17;;;1.80;;
56670;SDS011;42545;50.054;8.306;2022-08-03T07:38:34;2.78;;;1.75;;
56670;SDS011;42545;50.054;8.306;2022-08-03T07:41:01;3.47;;;1.85;;
56670;SDS011;42545;50.054;8.306;2022-08-03T07:43:29;4.05;;;2.00;;
56670;SDS011;42545;50.054;8.306;2022-08-03T07:45:55;2.35;;;1.80;;
56670;SDS011;42545;50.054;8.306;2022-08-03T07:48:22;3.60;;;2.15;;
56670;SDS011;42545;50.054;8.306;2022-08-03T07:50:49;2.42;;;1.73;;
56670;SDS011;42545;50.054;8.306;2022-08-03T07:53:16;3.70;;;2.17;;
56670;SDS011;42545;50.054;8.306;2022-08-03T07:55:45;3.15;;;1.88;;
56670;SDS011;42545;50.054;8.306;2022-08-03T07:58:12;2.63;;;2.10;;
56670;SDS011;42545;50.054;8.306;2022-08-03T08:00:41;2.83;;;2.13;;
56670;SDS011;42545;50.054;8.306;2022-08-03T08:03:09;3.25;;;2.10;;
56670;SDS011;42545;50.054;8.306;2022-08-03T08:05:36;4.40;;;2.42;;
56670;SDS011;42545;50.054;8.306;2022-08-03T08:08:03;4.53;;;2.20;;
56670;SDS011;42545;50.054;8.306;2022-08-03T08:10:30;5.40;;;2.30;;
56670;SDS011;42545;50.054;8.306;2022-08-03T08:12:59;3.20;;;2.00;;
56670;SDS011;42545;50.054;8.306;2022-08-03T08:15:27;3.63;;;2.20;;
56670;SDS011;42545;50.054;8.306;2022-08-03T08:17:54;2.95;;;1.90;;
56670;SDS011;42545;50.054;8.306;2022-08-03T08:20:23;3.05;;;2.10;;
56670;SDS011;42545;50.054;8.306;2022-08-03T08:22:52;4.63;;;1.63;;
56670;SDS011;42545;50.054;8.306;2022-08-03T08:25:21;3.05;;;1.98;;
56670;SDS011;42545;50.054;8.306;2022-08-03T08:27:48;2.20;;;1.90;;
56670;SDS011;42545;50.054;8.306;2022-08-03T08:30:20;2.65;;;2.10;;
56670;SDS011;42545;50.054;8.306;2022-08-03T08:32:48;2.97;;;1.80;;
56670;SDS011;42545;50.054;8.306;2022-08-03T08:35:15;3.00;;;1.95;;
56670;SDS011;42545;50.054;8.306;2022-08-03T08:37:43;2.85;;;1.90;;
56670;SDS011;42545;50.054;8.306;2022-08-03T08:40:11;3.67;;;1.95;;
56670;SDS011;42545;50.054;8.306;2022-08-03T08:42:39;2.40;;;1.92;;
56670;SDS011;42545;50.054;8.306;2022-08-03T08:45:07;2.22;;;1.70;;
56670;SDS011;42545;50.054;8.306;2022-08-03T08:47:38;2.92;;;2.00;;
56670;SDS011;42545;50.054;8.306;2022-08-03T08:50:06;2.72;;;1.90;;
56670;SDS011;42545;50.054;8.306;2022-08-03T08:52:35;3.03;;;1.65;;
56670;SDS011;42545;50.054;8.306;2022-08-03T08:55:06;4.65;;;2.25;;
56670;SDS011;42545;50.054;8.306;2022-08-03T08:57:35;2.85;;;1.85;;
56670;SDS011;42545;50.054;8.306;2022-08-03T09:00:04;3.57;;;1.90;;
56670;SDS011;42545;50.054;8.306;2022-08-03T09:02:33;4.68;;;2.00;;
56670;SDS011;42545;50.054;8.306;2022-08-03T09:05:02;5.18;;;2.05;;
56670;SDS011;42545;50.054;8.306;2022-08-03T09:07:29;3.28;;;2.05;;
56670;SDS011;42545;50.054;8.306;2022-08-03T09:09:56;2.63;;;1.80;;
56670;SDS011;42545;50.054;8.306;2022-08-03T09:12:22;9.07;;;2.25;;
56670;SDS011;42545;50.054;8.306;2022-08-03T09:14:49;6.50;;;2.10;;
56670;SDS011;42545;50.054;8.306;2022-08-03T09:17:16;3.47;;;1.92;;
56670;SDS011;42545;50.054;8.306;2022-08-03T09:19:47;3.95;;;1.70;;
56670;SDS011;42545;50.054;8.306;2022-08-03T09:22:33;3.97;;;2.00;;
56670;SDS011;42545;50.054;8.306;2022-08-03T09:25:02;2.10;;;1.90;;
56670;SDS011;42545;50.054;8.306;2022-08-03T09:27:40;2.55;;;2.03;;
56670;SDS011;42545;50.054;8.306;2022-08-03T09:30:11;3.50;;;2.03;;
56670;SDS011;42545;50.054;8.306;2022-08-03T09:32:39;5.05;;;2.00;;
56670;SDS011;42545;50.054;8.306;2022-08-03T09:35:07;6.78;;;2.25;;
56670;SDS011;42545;50.054;8.306;2022-08-03T09:37:34;3.37;;;2.00;;
56670;SDS011;42545;50.054;8.306;2022-08-03T09:40:00;5.38;;;2.00;;
56670;SDS011;42545;50.054;8.306;2022-08-03T09:42:28;3.72;;;1.98;;
56670;SDS011;42545;50.054;8.306;2022-08-03T09:44:55;3.47;;;1.60;;
56670;SDS011;42545;50.054;8.306;2022-08-03T09:47:26;4.18;;;1.70;;
56670;SDS011;42545;50.054;8.306;2022-08-03T09:49:56;3.40;;;1.80;;
56670;SDS011;42545;50.054;8.306;2022-08-03T09:52:30;2.88;;;1.90;;
56670;SDS011;42545;50.054;8.306;2022-08-03T09:54:59;2.20;;;1.73;;
56670;SDS011;42545;50.054;8.306;2022-08-03T09:57:28;2.17;;;1.90;;
56670;SDS011;42545;50.054;8.306;2022-08-03T10:00:04;2.72;;;2.10;;
56670;SDS011;42545;50.054;8.306;2022-08-03T10:02:35;1.88;;;1.67;;
56670;SDS011;42545;50.054;8.306;2022-08-03T10:05:03;2.67;;;1.95;;
56670;SDS011;42545;50.054;8.306;2022-08-03T10:07:42;2.03;;;1.63;;
56670;SDS011;42545;50.054;8.306;2022-08-03T10:10:09;2.78;;;1.92;;
56670;SDS011;42545;50.054;8.306;2022-08-03T10:12:37;2.80;;;1.85;;
56670;SDS011;42545;50.054;8.306;2022-08-03T10:15:06;5.22;;;1.65;;
56670;SDS011;42545;50.054;8.306;2022-08-03T10:17:34;7.15;;;2.05;;
56670;SDS011;42545;50.054;8.306;2022-08-03T10:20:01;4.45;;;1.60;;
56670;SDS011;42545;50.054;8.306;2022-08-03T10:22:31;2.03;;;1.65;;
56670;SDS011;42545;50.054;8.306;2022-08-03T10:25:01;1.95;;;1.67;;
56670;SDS011;42545;50.054;8.306;2022-08-03T10:27:31;1.95;;;1.67;;
56670;SDS011;42545;50.054;8.306;2022-08-03T10:30:00;2.88;;;1.80;;
56670;SDS011;42545;50.054;8.306;2022-08-03T10:32:29;1.73;;;1.45;;
56670;SDS011;42545;50.054;8.306;2022-08-03T10:35:01;2.35;;;1.60;;
56670;SDS011;42545;50.054;8.306;2022-08-03T10:37:32;1.63;;;1.52;;
56670;SDS011;42545;50.054;8.306;2022-08-03T10:40:05;2.72;;;1.67;;
56670;SDS011;42545;50.054;8.306;2022-08-03T10:42:34;2.40;;;1.75;;
56670;SDS011;42545;50.054;8.306;2022-08-03T10:45:03;2.20;;;1.73;;
56670;SDS011;42545;50.054;8.306;2022-08-03T10:47:32;1.92;;;1.67;;
56670;SDS011;42545;50.054;8.306;2022-08-03T10:50:00;8.38;;;2.15;;
56670;SDS011;42545;50.054;8.306;2022-08-03T10:52:28;2.30;;;1.90;;
56670;SDS011;42545;50.054;8.306;2022-08-03T10:54:55;3.45;;;2.20;;
56670;SDS011;42545;50.054;8.306;2022-08-03T10:57:45;2.05;;;1.70;;
56670;SDS011;42545;50.054;8.306;2022-08-03T11:00:13;2.80;;;1.92;;
56670;SDS011;42545;50.054;8.306;2022-08-03T11:05:31;4.18;;;2.35;;
56670;SDS011;42545;50.054;8.306;2022-08-03T11:10:49;4.90;;;1.80;;
56670;SDS011;42545;50.054;8.306;2022-08-03T11:13:19;4.07;;;2.00;;
56670;SDS011;42545;50.054;8.306;2022-08-03T11:15:49;3.47;;;2.10;;
56670;SDS011;42545;50.054;8.306;2022-08-03T11:18:18;3.65;;;2.00;;
56670;SDS011;42545;50.054;8.306;2022-08-03T11:20:45;2.40;;;1.83;;
56670;SDS011;42545;50.054;8.306;2022-08-03T11:23:14;2.80;;;2.00;;
56670;SDS011;42545;50.054;8.306;2022-08-03T11:28:36;2.38;;;1.80;;
56670;SDS011;42545;50.054;8.306;2022-08-03T11:34:12;1.70;;;1.60;;
56670;SDS011;42545;50.054;8.306;2022-08-03T11:39:48;1.50;;;1.40;;
56670;SDS011;42545;50.054;8.306;2022-08-03T11:42:38;3.20;;;1.90;;
56670;SDS011;42545;50.054;8.306;2022-08-03T11:45:13;2.22;;;1.60;;
56670;SDS011;42545;50.054;8.306;2022-08-03T11:47:41;2.67;;;1.55;;
56670;SDS011;42545;50.054;8.306;2022-08-03T11:50:09;1.60;;;1.30;;
56670;SDS011;42545;50.054;8.306;2022-08-03T11:52:38;2.38;;;1.80;;
56670;SDS011;42545;50.054;8.306;2022-08-03T11:55:10;2.97;;;1.70;;
56670;SDS011;42545;50.054;8.306;2022-08-03T11:57:39;4.05;;;1.85;;
56670;SDS011;42545;50.054;8.306;2022-08-03T12:02:54;2.53;;;1.75;;
56670;SDS011;42545;50.054;8.306;2022-08-03T12:05:31;1.90;;;1.50;;
56670;SDS011;42545;50.054;8.306;2022-08-03T12:08:10;2.15;;;1.80;;
56670;SDS011;42545;50.054;8.306;2022-08-03T12:10:39;1.90;;;1.80;;
56670;SDS011;42545;50.054;8.306;2022-08-03T12:13:06;1.90;;;1.70;;
56670;SDS011;42545;50.054;8.306;2022-08-03T12:15:35;1.98;;;1.83;;
56670;SDS011;42545;50.054;8.306;2022-08-03T12:18:03;1.77;;;1.67;;
56670;SDS011;42545;50.054;8.306;2022-08-03T12:20:39;2.17;;;1.98;;
56670;SDS011;42545;50.054;8.306;2022-08-03T12:23:06;2.15;;;1.52;;
56670;SDS011;42545;50.054;8.306;2022-08-03T12:25:34;1.70;;;1.60;;
56670;SDS011;42545;50.054;8.306;2022-08-03T12:28:09;2.15;;;1.70;;
56670;SDS011;42545;50.054;8.306;2022-08-03T12:30:48;1.70;;;1.60;;
56670;SDS011;42545;50.054;8.306;2022-08-03T12:33:18;4.40;;;2.30;;
56670;SDS011;42545;50.054;8.306;2022-08-03T12:35:47;2.05;;;1.80;;
56670;SDS011;42545;50.054;8.306;2022-08-03T12:38:20;2.65;;;1.83;;
56670;SDS011;42545;50.054;8.306;2022-08-03T12:40:57;2.45;;;2.00;;
56670;SDS011;42545;50.054;8.306;2022-08-03T12:43:27;4.13;;;1.90;;
56670;SDS011;42545;50.054;8.306;2022-08-03T12:46:09;4.60;;;2.00;;
56670;SDS011;42545;50.054;8.306;2022-08-03T12:51:23;2.08;;;1.73;;
56670;SDS011;42545;50.054;8.306;2022-08-03T12:53:51;2.95;;;1.80;;
56670;SDS011;42545;50.054;8.306;2022-08-03T12:56:18;2.42;;;1.80;;
56670;SDS011;42545;50.054;8.306;2022-08-03T12:58:46;1.65;;;1.50;;
56670;SDS011;42545;50.054;8.306;2022-08-03T13:01:15;1.83;;;1.73;;
56670;SDS011;42545;50.054;8.306;2022-08-03T13:03:43;3.40;;;1.90;;
56670;SDS011;42545;50.054;8.306;2022-08-03T13:06:11;1.90;;;1.80;;
56670;SDS011;42545;50.054;8.306;2022-08-03T13:08:39;3.55;;;2.30;;
56670;SDS011;42545;50.054;8.306;2022-08-03T13:11:19;2.40;;;1.90;;
56670;SDS011;42545;50.054;8.306;2022-08-03T13:13:47;3.28;;;1.73;;
56670;SDS011;42545;50.054;8.306;2022-08-03T13:16:16;4.32;;;1.70;;
56670;SDS011;42545;50.054;8.306;2022-08-03T13:18:43;1.75;;;1.65;;
56670;SDS011;42545;50.054;8.306;2022-08-03T13:21:11;2.40;;;1.58;;
56670;SDS011;42545;50.054;8.306;2022-08-03T13:23:39;1.95;;;1.80;;
56670;SDS011;42545;50.054;8.306;2022-08-03T13:26:06;1.70;;;1.60;;
56670;SDS011;42545;50.054;8.306;2022-08-03T13:28:34;2.15;;;1.55;;
56670;SDS011;42545;50.054;8.306;2022-08-03T13:31:01;2.25;;;1.80;;
56670;SDS011;42545;50.054;8.306;2022-08-03T13:33:29;2.05;;;1.85;;
56670;SDS011;42545;50.054;8.306;2022-08-03T13:35:56;2.17;;;1.70;;
56670;SDS011;42545;50.054;8.306;2022-08-03T13:38:23;1.52;;;1.40;;
56670;SDS011;42545;50.054;8.306;2022-08-03T13:40:50;4.90;;;2.45;;
56670;SDS011;42545;50.054;8.306;2022-08-03T13:43:18;2.20;;;2.00;;
56670;SDS011;42545;50.054;8.306;2022-08-03T13:45:46;2.15;;;1.88;;
56670;SDS011;42545;50.054;8.306;2022-08-03T13:48:13;1.80;;;1.70;;
56670;SDS011;42545;50.054;8.306;2022-08-03T13:50:41;2.58;;;1.70;;
56670;SDS011;42545;50.054;8.306;2022-08-03T13:53:10;2.20;;;1.77;;
56670;SDS011;42545;50.054;8.306;2022-08-03T13:55:37;2.92;;;1.88;;
56670;SDS011;42545;50.054;8.306;2022-08-03T13:58:03;1.83;;;1.55;;
56670;SDS011;42545;50.054;8.306;2022-08-03T14:00:32;2.60;;;2.00;;
56670;SDS011;42545;50.054;8.306;2022-08-03T14:02:59;3.45;;;2.95;;
56670;SDS011;42545;50.054;8.306;2022-08-03T14:05:27;3.35;;;2.35;;
56670;SDS011;42545;50.054;8.306;2022-08-03T14:07:56;3.85;;;2.10;;
56670;SDS011;42545;50.054;8.306;2022-08-03T14:10:22;2.00;;;1.80;;
56670;SDS011;42545;50.054;8.306;2022-08-03T14:12:49;1.70;;;1.60;;
56670;SDS011;42545;50.054;8.306;2022-08-03T14:15:16;1.73;;;1.63;;
56670;SDS011;42545;50.054;8.306;2022-08-03T14:17:43;3.22;;;2.05;;
56670;SDS011;42545;50.054;8.306;2022-08-03T14:20:09;2.58;;;1.80;;
56670;SDS011;42545;50.054;8.306;2022-08-03T14:22:38;2.63;;;1.80;;
56670;SDS011;42545;50.054;8.306;2022-08-03T14:25:07;1.60;;;1.50;;
56670;SDS011;42545;50.054;8.306;2022-08-03T14:27:34;2.25;;;1.77;;
56670;SDS011;42545;50.054;8.306;2022-08-03T14:30:01;2.50;;;1.80;;
56670;SDS011;42545;50.054;8.306;2022-08-03T14:32:27;3.33;;;1.67;;
56670;SDS011;42545;50.054;8.306;2022-08-03T14:34:54;2.33;;;1.40;;
56670;SDS011;42545;50.054;8.306;2022-08-03T14:37:21;1.83;;;1.50;;
56670;SDS011;42545;50.054;8.306;2022-08-03T14:39:48;2.53;;;1.58;;
56670;SDS011;42545;50.054;8.306;2022-08-03T14:42:16;1.60;;;1.50;;
56670;SDS011;42545;50.054;8.306;2022-08-03T14:47:10;1.50;;;1.40;;
56670;SDS011;42545;50.054;8.306;2022-08-03T14:49:43;3.40;;;1.55;;
56670;SDS011;42545;50.054;8.306;2022-08-03T14:52:09;2.92;;;1.70;;
56670;SDS011;42545;50.054;8.306;2022-08-03T14:54:36;1.70;;;1.58;;
56670;SDS011;42545;50.054;8.306;2022-08-03T14:57:03;1.65;;;1.55;;
56670;SDS011;42545;50.054;8.306;2022-08-03T14:59:31;1.67;;;1.58;;
56670;SDS011;42545;50.054;8.306;2022-08-03T15:01:58;2.50;;;1.63;;
56670;SDS011;42545;50.054;8.306;2022-08-03T15:04:25;1.85;;;1.70;;
56670;SDS011;42545;50.054;8.306;2022-08-03T15:06:52;2.05;;;1.85;;
56670;SDS011;42545;50.054;8.306;2022-08-03T15:09:18;1.90;;;1.70;;
56670;SDS011;42545;50.054;8.306;2022-08-03T15:11:45;1.92;;;1.73;;
56670;SDS011;42545;50.054;8.306;2022-08-03T15:14:12;2.28;;;1.60;;
56670;SDS011;42545;50.054;8.306;2022-08-03T15:16:40;1.80;;;1.60;;
56670;SDS011;42545;50.054;8.306;2022-08-03T15:21:34;4.53;;;1.83;;
56670;SDS011;42545;50.054;8.306;2022-08-03T15:24:02;2.42;;;1.50;;
56670;SDS011;42545;50.054;8.306;2022-08-03T15:26:29;1.92;;;1.60;;
56670;SDS011;42545;50.054;8.306;2022-08-03T15:28:56;1.40;;;1.30;;
56670;SDS011;42545;50.054;8.306;2022-08-03T15:31:23;1.42;;;1.30;;